Time;durP1;ratioP1;P1;durP2;ratioP2;P2;SDS_P1;SDS_P2;PMS_P1;PMS_P2;Temp;Humidity;BMP_temperature;BMP_pressure;BME280_temperature;BME280_humidity;BME280_pressure;Samples;Min_cycle;Max_cycle;Signal;HPM_P1;HPM_P2
2022/03/18 00:00:51;;;;;;;37.45;7.47;;;4.70;99.90;;;;;;5019083;28;20433;-77
2022/03/18 00:03:16;;;;;;;42.05;8.13;;;4.70;99.90;;;;;;5021945;28;20037;-75
2022/03/18 00:05:42;;;;;;;35.80;7.80;;;4.70;99.90;;;;;;5022856;28;20030;-77
2022/03/18 00:08:10;;;;;;;45.40;8.00;;;4.60;99.90;;;;;;5018417;28;20041;-77
2022/03/18 00:10:36;;;;;;;36.80;6.78;;;4.60;99.90;;;;;;5023340;28;20026;-76
2022/03/18 00:13:01;;;;;;;57.30;18.75;;;4.50;99.90;;;;;;5023374;28;20036;-77
2022/03/18 00:15:27;;;;;;;64.65;21.63;;;4.60;99.90;;;;;;5023112;28;20479;-77
2022/03/18 00:17:54;;;;;;;47.45;10.05;;;4.60;99.90;;;;;;5026310;28;20025;-75
2022/03/18 00:20:20;;;;;;;40.15;8.35;;;4.60;99.90;;;;;;5027401;28;20117;-76
2022/03/18 00:22:47;;;;;;;40.00;7.18;;;4.50;99.90;;;;;;5032117;28;20021;-76
2022/03/18 00:25:13;;;;;;;41.22;7.82;;;4.40;99.90;;;;;;5030258;28;20105;-75
2022/03/18 00:27:42;;;;;;;39.90;8.25;;;4.40;99.90;;;;;;5022012;28;20029;-77
2022/03/18 00:30:09;;;;;;;43.35;8.68;;;4.30;99.90;;;;;;5025369;28;20033;-77
2022/03/18 00:32:37;;;;;;;37.90;8.18;;;4.30;99.90;;;;;;5030161;28;20036;-75
2022/03/18 00:35:03;;;;;;;53.03;12.32;;;4.20;99.90;;;;;;5031270;28;20082;-75
2022/03/18 00:37:29;;;;;;;49.47;10.73;;;4.20;99.90;;;;;;5029742;28;20030;-77
2022/03/18 00:39:54;;;;;;;38.15;8.38;;;4.20;99.90;;;;;;5032260;28;20467;-76
2022/03/18 00:42:20;;;;;;;35.25;7.30;;;4.20;99.90;;;;;;5030299;28;20032;-75
2022/03/18 00:44:46;;;;;;;40.03;7.57;;;4.20;99.90;;;;;;5029833;28;20033;-74
2022/03/18 00:52:40;;;;;;;27.63;6.97;;;4.10;99.90;;;;;;5027892;28;20064;-75
2022/03/18 00:55:06;;;;;;;35.05;7.10;;;4.10;99.90;;;;;;5022588;28;20490;-76
2022/03/18 00:57:33;;;;;;;38.10;7.25;;;4.00;99.90;;;;;;5022689;28;20072;-76
2022/03/18 00:59:58;;;;;;;42.90;7.43;;;4.00;99.90;;;;;;5020089;28;20018;-76
2022/03/18 01:02:24;;;;;;;28.17;7.05;;;4.00;99.90;;;;;;5018448;28;20026;-76
2022/03/18 01:04:50;;;;;;;38.15;6.88;;;4.00;99.90;;;;;;5019274;28;20057;-77
2022/03/18 01:07:18;;;;;;;34.38;6.75;;;4.00;99.90;;;;;;5020478;28;20430;-77
2022/03/18 01:09:44;;;;;;;42.92;7.63;;;4.00;99.90;;;;;;5021199;28;20033;-77
2022/03/18 01:12:10;;;;;;;32.20;7.10;;;3.90;99.90;;;;;;5019837;28;20030;-76
2022/03/18 01:14:36;;;;;;;33.10;6.80;;;4.00;99.90;;;;;;5025606;28;20037;-77
2022/03/18 01:17:02;;;;;;;47.85;8.07;;;4.00;99.90;;;;;;5024815;28;20036;-76
2022/03/18 01:19:27;;;;;;;38.55;7.45;;;3.90;99.90;;;;;;5020638;28;20017;-76
2022/03/18 01:21:53;;;;;;;33.38;6.72;;;3.90;99.90;;;;;;5021441;28;20070;-76
2022/03/18 01:24:19;;;;;;;40.05;7.43;;;3.90;99.90;;;;;;5022550;28;20065;-76
2022/03/18 01:26:45;;;;;;;34.90;7.47;;;3.80;99.90;;;;;;5022045;28;20025;-76
2022/03/18 01:29:10;;;;;;;36.42;7.50;;;3.80;99.90;;;;;;5022980;28;20073;-77
2022/03/18 01:31:36;;;;;;;38.53;7.55;;;3.80;99.90;;;;;;5028959;28;20108;-76
2022/03/18 01:34:02;;;;;;;31.33;6.50;;;3.80;99.90;;;;;;5022894;28;20030;-76
2022/03/18 01:36:28;;;;;;;46.47;8.00;;;3.70;99.90;;;;;;5020053;28;20022;-76
2022/03/18 01:38:53;;;;;;;35.28;6.78;;;3.70;99.90;;;;;;5023164;28;20108;-77
2022/03/18 01:41:19;;;;;;;38.47;6.90;;;3.70;99.90;;;;;;5027792;28;20094;-77
2022/03/18 01:43:46;;;;;;;31.88;6.93;;;3.70;99.90;;;;;;5024574;28;20022;-77
2022/03/18 01:46:13;;;;;;;31.70;6.82;;;3.70;99.90;;;;;;5025387;28;20041;-78
2022/03/18 01:48:39;;;;;;;33.33;6.93;;;3.60;99.90;;;;;;5028077;28;20025;-76
2022/03/18 01:51:06;;;;;;;35.92;7.72;;;3.60;99.90;;;;;;5030747;28;20034;-76
2022/03/18 01:53:35;;;;;;;45.50;7.18;;;3.60;99.90;;;;;;5025736;28;20049;-77
2022/03/18 01:56:00;;;;;;;42.67;8.13;;;3.60;99.90;;;;;;5021820;28;20049;-77
2022/03/18 01:58:26;;;;;;;37.72;7.40;;;3.60;99.90;;;;;;5024457;28;20081;-77
2022/03/18 02:00:51;;;;;;;47.25;7.68;;;3.50;99.90;;;;;;5025012;28;20026;-77
2022/03/18 02:03:17;;;;;;;33.63;6.40;;;3.50;99.90;;;;;;5025893;28;20040;-77
2022/03/18 02:05:43;;;;;;;34.35;7.95;;;3.50;99.90;;;;;;5022939;28;20069;-79
2022/03/18 02:08:09;;;;;;;42.33;7.57;;;3.50;99.90;;;;;;5040301;22;20046;-75
2022/03/18 02:10:36;;;;;;;26.63;7.03;;;3.40;99.90;;;;;;4997415;28;20048;-75
2022/03/18 02:13:01;;;;;;;36.42;7.03;;;3.40;99.90;;;;;;5013665;28;20394;-75
2022/03/18 02:15:27;;;;;;;45.47;7.80;;;3.40;99.90;;;;;;4996028;28;20022;-75
2022/03/18 02:17:52;;;;;;;40.70;7.78;;;3.40;99.90;;;;;;5013766;28;20044;-75
2022/03/18 02:20:19;;;;;;;33.90;7.55;;;3.40;99.90;;;;;;5013681;28;20029;-74
2022/03/18 02:22:45;;;;;;;40.83;7.00;;;3.40;99.90;;;;;;5013499;28;20022;-75
2022/03/18 02:25:14;;;;;;;29.90;6.82;;;3.40;99.90;;;;;;5013600;28;20030;-74
2022/03/18 02:27:52;;;;;;;33.22;6.20;;;3.40;99.90;;;;;;5013515;28;20100;-76
2022/03/18 02:30:17;;;;;;;39.17;7.38;;;3.30;99.90;;;;;;5013747;28;20030;-75
2022/03/18 02:32:43;;;;;;;31.05;6.60;;;3.30;99.90;;;;;;5013161;28;20026;-75
2022/03/18 02:35:10;;;;;;;32.80;6.32;;;3.40;99.90;;;;;;5013430;28;20517;-74
2022/03/18 02:37:35;;;;;;;24.42;6.18;;;3.40;99.90;;;;;;5012998;28;20093;-74
2022/03/18 02:40:02;;;;;;;30.20;6.78;;;3.30;99.90;;;;;;5013397;28;20544;-74
2022/03/18 02:42:27;;;;;;;35.28;6.38;;;3.30;99.90;;;;;;5013615;28;20053;-75
2022/03/18 02:44:53;;;;;;;35.35;7.30;;;3.30;99.90;;;;;;5013339;28;20026;-74
2022/03/18 02:47:19;;;;;;;29.45;6.43;;;3.30;99.90;;;;;;5011652;28;20026;-76
2022/03/18 02:49:45;;;;;;;32.10;6.70;;;3.30;99.90;;;;;;5013369;28;20480;-76
2022/03/18 02:52:10;;;;;;;35.85;7.32;;;3.30;99.90;;;;;;5023910;28;20033;-75
2022/03/18 02:54:36;;;;;;;33.22;6.88;;;3.20;99.90;;;;;;5012291;28;20572;-76
2022/03/18 02:57:02;;;;;;;35.15;7.13;;;3.20;99.90;;;;;;5012887;28;20021;-75
2022/03/18 02:59:28;;;;;;;28.63;7.03;;;3.20;99.90;;;;;;5012350;28;20426;-75
2022/03/18 03:01:55;;;;;;;44.95;10.07;;;3.20;99.90;;;;;;5013447;28;20505;-74
2022/03/18 03:04:20;;;;;;;45.45;10.18;;;3.10;99.90;;;;;;5013295;28;20545;-74
2022/03/18 03:09:30;;;;;;;30.65;6.88;;;3.10;99.90;;;;;;5016227;28;20084;-74
2022/03/18 03:11:56;;;;;;;32.95;7.22;;;3.00;99.90;;;;;;5013031;28;20077;-74
2022/03/18 03:14:22;;;;;;;30.75;6.90;;;3.00;99.90;;;;;;5015840;28;20029;-77
2022/03/18 03:16:48;;;;;;;33.55;6.55;;;3.00;99.90;;;;;;5019216;28;20026;-74
2022/03/18 03:19:14;;;;;;;30.23;6.95;;;3.00;99.90;;;;;;5020111;28;20406;-75
2022/03/18 03:21:40;;;;;;;33.22;7.07;;;3.00;99.90;;;;;;5015792;28;20026;-76
2022/03/18 03:24:06;;;;;;;35.85;7.03;;;3.00;99.90;;;;;;5016612;28;20021;-77
2022/03/18 03:26:32;;;;;;;29.40;6.72;;;3.00;99.90;;;;;;5017965;28;20034;-75
2022/03/18 03:28:57;;;;;;;30.42;6.97;;;3.00;99.90;;;;;;5016146;28;20344;-76
2022/03/18 03:31:23;;;;;;;29.48;7.53;;;3.00;99.90;;;;;;5016651;28;20074;-77
2022/03/18 03:33:48;;;;;;;22.13;6.13;;;3.10;99.90;;;;;;5017985;28;20064;-77
2022/03/18 03:36:14;;;;;;;34.95;6.78;;;3.10;99.90;;;;;;5015882;28;20416;-76
2022/03/18 03:38:40;;;;;;;32.03;7.22;;;3.10;99.90;;;;;;5015844;28;20022;-77
2022/03/18 03:41:06;;;;;;;36.80;7.45;;;3.10;99.90;;;;;;5017484;28;20029;-77
2022/03/18 03:43:31;;;;;;;34.60;6.63;;;3.10;99.90;;;;;;5019085;28;20083;-76
2022/03/18 03:45:57;;;;;;;30.67;6.60;;;3.10;99.90;;;;;;5012348;28;20030;-76
2022/03/18 03:48:23;;;;;;;31.95;6.75;;;3.10;99.90;;;;;;5013977;28;20030;-76
2022/03/18 03:50:48;;;;;;;37.95;7.30;;;3.10;99.90;;;;;;5013369;28;20032;-76
2022/03/18 03:53:14;;;;;;;34.75;6.93;;;3.00;99.90;;;;;;5012561;28;20026;-76
2022/03/18 03:55:40;;;;;;;31.98;7.50;;;3.00;99.90;;;;;;5012737;28;20026;-76
2022/03/18 03:58:07;;;;;;;31.35;6.47;;;2.90;99.90;;;;;;5013125;28;20498;-76
2022/03/18 04:00:33;;;;;;;26.77;6.90;;;2.90;99.90;;;;;;5013353;28;20029;-75
2022/03/18 04:02:59;;;;;;;27.65;7.63;;;2.90;99.90;;;;;;5013709;28;20025;-77
2022/03/18 04:05:25;;;;;;;32.90;6.70;;;2.90;99.90;;;;;;5013214;28;20489;-76
2022/03/18 04:07:51;;;;;;;34.08;7.35;;;2.90;99.90;;;;;;5012722;28;20033;-75
2022/03/18 04:10:19;;;;;;;28.15;7.00;;;2.90;99.90;;;;;;5012098;28;20030;-75
2022/03/18 04:12:44;;;;;;;33.50;7.53;;;2.90;99.90;;;;;;5011738;28;20533;-77
2022/03/18 04:15:10;;;;;;;39.75;7.05;;;2.90;99.90;;;;;;5010600;28;20022;-77
2022/03/18 04:17:44;;;;;;;28.27;6.80;;;2.90;99.90;;;;;;5012960;28;20030;-75
2022/03/18 04:20:18;;;;;;;23.35;6.30;;;2.80;99.90;;;;;;5010829;28;20029;-75
2022/03/18 04:22:44;;;;;;;32.88;7.18;;;2.80;99.90;;;;;;5010766;28;20034;-76
2022/03/18 04:25:10;;;;;;;34.38;6.63;;;2.80;99.90;;;;;;5012503;28;20105;-76
2022/03/18 04:27:37;;;;;;;33.22;6.70;;;2.70;99.90;;;;;;5010864;28;20053;-75
2022/03/18 04:30:08;;;;;;;28.23;6.78;;;2.70;99.90;;;;;;5011691;28;20022;-77
2022/03/18 04:32:34;;;;;;;40.45;8.40;;;2.70;99.90;;;;;;5014198;28;20032;-77
2022/03/18 04:34:59;;;;;;;34.55;6.72;;;2.80;99.90;;;;;;5012516;28;20100;-75
2022/03/18 04:37:25;;;;;;;31.35;6.85;;;2.80;99.90;;;;;;5011921;28;20029;-76
2022/03/18 04:39:51;;;;;;;22.65;6.72;;;2.80;99.90;;;;;;5012395;28;20483;-76
2022/03/18 04:42:17;;;;;;;28.85;6.97;;;2.90;99.90;;;;;;5012672;28;20050;-76
2022/03/18 04:44:43;;;;;;;31.02;7.15;;;2.90;99.90;;;;;;5012429;28;20079;-75
2022/03/18 04:47:09;;;;;;;26.15;6.78;;;3.00;99.90;;;;;;5012653;28;20432;-76
2022/03/18 04:49:34;;;;;;;31.75;7.32;;;3.00;99.90;;;;;;5012540;28;20072;-75
2022/03/18 04:52:00;;;;;;;31.55;7.45;;;3.00;99.90;;;;;;5013302;28;20113;-76
2022/03/18 04:54:26;;;;;;;39.58;7.50;;;3.00;99.90;;;;;;5015890;28;20394;-75
2022/03/18 04:59:35;;;;;;;35.63;9.47;;;3.10;99.90;;;;;;5020633;28;20028;-77
2022/03/18 05:02:01;;;;;;;36.85;7.60;;;3.10;99.90;;;;;;5026917;28;20269;-74
2022/03/18 05:04:26;;;;;;;28.98;8.63;;;3.20;99.90;;;;;;5036497;28;20021;-74
2022/03/18 05:06:52;;;;;;;47.33;9.15;;;3.20;99.90;;;;;;5036135;28;20033;-75
2022/03/18 05:09:17;;;;;;;42.63;7.15;;;3.20;99.90;;;;;;5036684;28;20061;-76
2022/03/18 05:11:43;;;;;;;35.05;7.32;;;3.20;99.90;;;;;;5032289;28;20014;-73
2022/03/18 05:14:08;;;;;;;47.17;7.53;;;3.20;99.90;;;;;;5036738;28;20089;-75
2022/03/18 05:16:34;;;;;;;29.05;6.97;;;3.30;99.90;;;;;;5036276;28;20021;-76
2022/03/18 05:18:59;;;;;;;43.35;8.45;;;3.30;99.90;;;;;;5032361;28;20044;-76
2022/03/18 05:21:25;;;;;;;34.65;8.48;;;3.40;99.90;;;;;;5021536;28;20457;-76
2022/03/18 05:23:51;;;;;;;29.20;7.78;;;3.40;99.90;;;;;;5024204;28;20030;-75
2022/03/18 05:26:17;;;;;;;30.60;7.68;;;3.40;99.90;;;;;;5023289;28;20026;-76
2022/03/18 05:28:42;;;;;;;43.33;7.97;;;3.30;99.90;;;;;;5026335;28;20072;-75
2022/03/18 05:31:09;;;;;;;37.25;8.48;;;3.30;99.90;;;;;;5025963;28;20030;-72
2022/03/18 05:33:34;;;;;;;35.60;8.75;;;3.30;99.90;;;;;;5023772;28;20037;-73
2022/03/18 05:36:00;;;;;;;51.60;11.30;;;3.20;99.90;;;;;;5027364;28;20053;-76
2022/03/18 05:38:26;;;;;;;36.97;10.57;;;3.20;99.90;;;;;;5029353;28;20479;-76
2022/03/18 05:40:53;;;;;;;36.85;10.30;;;3.20;99.90;;;;;;5021350;28;20029;-77
2022/03/18 05:43:18;;;;;;;38.83;10.45;;;3.20;99.90;;;;;;5019297;28;20054;-77
2022/03/18 05:45:45;;;;;;;37.38;10.45;;;3.20;99.90;;;;;;5016529;28;20037;-77
2022/03/18 05:48:11;;;;;;;30.20;7.43;;;3.30;99.90;;;;;;5015241;28;20018;-74
2022/03/18 05:50:37;;;;;;;36.70;8.45;;;3.30;99.90;;;;;;5013295;28;20033;-76
2022/03/18 05:53:03;;;;;;;29.90;8.20;;;3.40;99.90;;;;;;5015173;28;20636;-79
2022/03/18 05:56:52;;;;;;;42.08;11.48;;;3.50;99.90;;;;;;5015913;28;20040;-76
2022/03/18 05:58:14;;;;;;;31.10;10.82;;;3.50;99.90;;;;;;5020444;28;20025;-77
2022/03/18 06:00:42;;;;;;;34.33;8.32;;;3.60;99.90;;;;;;5019823;28;20212;-75
2022/03/18 06:03:07;;;;;;;73.25;23.17;;;3.60;99.90;;;;;;5016097;28;20046;-75
2022/03/18 06:05:33;;;;;;;59.70;19.85;;;3.70;99.90;;;;;;5013937;28;20030;-75
2022/03/18 06:11:48;;;;;;;36.15;9.75;;;3.80;99.90;;;;;;5016197;28;20060;-76
2022/03/18 06:13:28;;;;;;;34.60;8.47;;;3.90;99.90;;;;;;5015509;28;20064;-76
2022/03/18 06:15:53;;;;;;;40.80;11.35;;;3.90;99.90;;;;;;5018956;28;20109;-77
2022/03/18 06:18:19;;;;;;;40.70;10.50;;;3.90;99.90;;;;;;5017163;28;20022;-76
2022/03/18 06:20:50;;;;;;;35.60;8.93;;;4.10;99.90;;;;;;5019723;28;20033;-76
2022/03/18 06:23:15;;;;;;;29.00;8.82;;;4.10;99.90;;;;;;5016635;28;20030;-78
2022/03/18 06:25:42;;;;;;;31.17;9.23;;;4.20;99.90;;;;;;5016031;28;20037;-77
2022/03/18 06:28:08;;;;;;;34.42;8.60;;;4.20;99.90;;;;;;5014689;28;20335;-75
2022/03/18 06:30:34;;;;;;;32.03;8.70;;;4.30;99.90;;;;;;5019905;28;20483;-75
2022/03/18 06:32:59;;;;;;;38.20;8.13;;;4.30;99.90;;;;;;5029060;28;20072;-77
2022/03/18 06:35:25;;;;;;;29.25;7.90;;;4.40;99.90;;;;;;5022699;28;20109;-73
2022/03/18 06:37:51;;;;;;;32.15;8.63;;;4.50;99.90;;;;;;5016905;28;20108;-76
2022/03/18 06:40:17;;;;;;;34.67;8.60;;;4.60;99.90;;;;;;5015146;28;20057;-76
2022/03/18 06:42:42;;;;;;;43.30;9.10;;;4.80;99.90;;;;;;5015344;28;20471;-76
2022/03/18 06:45:08;;;;;;;33.65;7.93;;;4.80;99.90;;;;;;5017425;28;20093;-80
2022/03/18 06:47:34;;;;;;;32.80;8.90;;;4.90;99.90;;;;;;5019925;28;20466;-80
2022/03/18 06:50:00;;;;;;;34.35;10.02;;;5.00;99.90;;;;;;5026680;28;20080;-79
2022/03/18 06:52:25;;;;;;;35.90;10.73;;;5.10;99.90;;;;;;5017874;28;20033;-76
2022/03/18 06:54:51;;;;;;;33.28;7.95;;;5.20;99.90;;;;;;5012899;28;20026;-76
2022/03/18 06:57:16;;;;;;;41.50;9.27;;;5.30;99.90;;;;;;5017497;28;20380;-78
2022/03/18 06:59:42;;;;;;;31.88;8.25;;;5.30;99.90;;;;;;5016389;28;20030;-77
2022/03/18 07:02:07;;;;;;;33.33;8.15;;;5.30;99.90;;;;;;5019406;28;20018;-77
2022/03/18 07:04:33;;;;;;;33.13;7.97;;;5.40;99.90;;;;;;5019485;28;20036;-77
2022/03/18 07:06:58;;;;;;;36.58;8.27;;;5.40;99.90;;;;;;5018397;28;20038;-75
2022/03/18 07:09:24;;;;;;;32.28;8.32;;;5.40;99.90;;;;;;5016290;28;20033;-77
2022/03/18 07:11:49;;;;;;;32.80;8.48;;;5.50;99.90;;;;;;5016670;28;20420;-75
2022/03/18 07:14:15;;;;;;;35.25;8.57;;;5.50;99.90;;;;;;5016430;28;20073;-77
2022/03/18 07:19:25;;;;;;;33.50;10.17;;;5.70;99.90;;;;;;5013962;28;20033;-74
2022/03/18 07:21:50;;;;;;;46.55;10.55;;;5.80;99.90;;;;;;5014836;28;20017;-74
2022/03/18 07:24:16;;;;;;;39.60;11.13;;;5.90;99.90;;;;;;5013503;28;20471;-75
2022/03/18 07:26:42;;;;;;;29.23;9.48;;;6.10;99.90;;;;;;5012852;28;20061;-75
2022/03/18 07:29:07;;;;;;;49.00;9.38;;;6.30;99.90;;;;;;5013290;28;20029;-74
2022/03/18 07:31:33;;;;;;;24.33;7.43;;;6.40;99.90;;;;;;5013871;28;20053;-77
2022/03/18 07:33:59;;;;;;;22.25;7.70;;;6.60;99.90;;;;;;5016019;28;20432;-75
2022/03/18 07:36:25;;;;;;;33.83;8.02;;;6.70;99.90;;;;;;5015457;28;20025;-75
2022/03/18 07:38:51;;;;;;;34.70;7.78;;;6.60;99.90;;;;;;5013208;28;20029;-76
2022/03/18 07:41:17;;;;;;;36.13;8.52;;;6.60;99.90;;;;;;5012810;28;20447;-75
2022/03/18 07:43:42;;;;;;;35.25;8.73;;;6.70;99.90;;;;;;5013495;28;20200;-74
2022/03/18 07:46:08;;;;;;;25.33;8.45;;;6.70;99.90;;;;;;5015541;28;20109;-74
2022/03/18 07:48:34;;;;;;;32.25;8.30;;;6.70;99.90;;;;;;5013209;28;20026;-73
2022/03/18 07:50:59;;;;;;;38.40;9.40;;;6.60;99.90;;;;;;5012958;28;20021;-76
2022/03/18 07:53:25;;;;;;;33.95;10.07;;;6.60;99.90;;;;;;5013175;28;20026;-76
2022/03/18 07:55:50;;;;;;;31.58;8.55;;;6.60;99.90;;;;;;5012616;28;20026;-75
2022/03/18 07:58:16;;;;;;;27.95;9.88;;;6.60;99.90;;;;;;5013900;28;20471;-77
2022/03/18 08:00:43;;;;;;;37.58;9.60;;;6.70;99.90;;;;;;5016051;28;20372;-75
2022/03/18 08:03:08;;;;;;;35.63;9.18;;;6.90;99.90;;;;;;5016321;28;20018;-73
2022/03/18 08:05:35;;;;;;;27.08;8.25;;;6.90;99.90;;;;;;5013684;28;20033;-74
2022/03/18 08:08:01;;;;;;;31.90;8.93;;;7.10;99.90;;;;;;5045007;23;20051;-76
2022/03/18 08:10:26;;;;;;;33.03;9.13;;;7.30;99.90;;;;;;5041294;28;20049;-74
2022/03/18 08:12:53;;;;;;;37.70;9.00;;;7.40;99.90;;;;;;5041325;28;20025;-74
2022/03/18 08:15:20;;;;;;;31.35;8.90;;;7.50;99.90;;;;;;5055414;28;20033;-79
2022/03/18 08:17:51;;;;;;;40.03;9.50;;;7.80;99.90;;;;;;5057488;28;20017;-79
2022/03/18 08:20:18;;;;;;;33.03;8.05;;;7.80;99.90;;;;;;5020042;28;20034;-72
2022/03/18 08:22:43;;;;;;;35.55;9.30;;;8.00;99.90;;;;;;5036155;28;20029;-76
2022/03/18 08:25:18;;;;;;;33.65;9.02;;;8.20;99.90;;;;;;5035189;28;20018;-76
2022/03/18 08:27:44;;;;;;;39.38;9.35;;;8.40;99.90;;;;;;5035643;28;20034;-75
2022/03/18 08:30:11;;;;;;;31.52;8.95;;;8.50;99.90;;;;;;5033465;28;20045;-73
2022/03/18 08:32:37;;;;;;;31.08;7.97;;;8.60;99.90;;;;;;5016182;28;20062;-74
2022/03/18 08:35:03;;;;;;;33.10;8.43;;;8.70;99.90;;;;;;5015936;28;20510;-75
2022/03/18 08:40:13;;;;;;;25.47;8.23;;;8.90;99.90;;;;;;5015863;28;20091;-74
2022/03/18 08:42:40;;;;;;;25.15;7.65;;;9.50;99.90;;;;;;5015532;28;20030;-74
2022/03/18 08:45:07;;;;;;;24.98;7.15;;;10.20;99.90;;;;;;5015367;28;20108;-76
2022/03/18 08:47:32;;;;;;;29.33;7.72;;;11.10;99.90;;;;;;5015202;28;20026;-75
2022/03/18 08:49:58;;;;;;;28.50;7.95;;;12.40;99.90;;;;;;5015618;28;20106;-75
2022/03/18 08:52:24;;;;;;;21.83;6.90;;;13.00;99.90;;;;;;5015619;28;20075;-78
2022/03/18 08:54:50;;;;;;;23.52;6.53;;;14.00;99.90;;;;;;4997934;28;20030;-76
2022/03/18 08:57:16;;;;;;;24.10;6.43;;;14.80;99.90;;;;;;5016031;28;20030;-76
2022/03/18 08:59:42;;;;;;;30.38;7.57;;;15.60;99.90;;;;;;5015652;28;20379;-76
2022/03/18 09:02:08;;;;;;;27.50;7.32;;;15.90;99.90;;;;;;5018109;28;20030;-77
2022/03/18 09:04:33;;;;;;;23.05;6.90;;;16.70;99.90;;;;;;5020918;28;20041;-79
2022/03/18 09:06:59;;;;;;;49.00;15.07;;;17.50;99.90;;;;;;5021585;28;20022;-80
2022/03/18 09:09:24;;;;;;;53.67;18.60;;;18.10;99.90;;;;;;5018362;28;20113;-78
2022/03/18 09:11:50;;;;;;;47.15;15.57;;;18.90;99.90;;;;;;5018853;28;20557;-77
2022/03/18 09:14:15;;;;;;;48.25;17.85;;;19.30;97.20;;;;;;5019896;28;20073;-77
2022/03/18 09:16:41;;;;;;;26.48;7.32;;;19.60;94.80;;;;;;5019704;28;20030;-81
2022/03/18 09:19:07;;;;;;;64.90;22.30;;;19.90;93.40;;;;;;5004193;28;20056;-79
2022/03/18 09:21:34;;;;;;;26.90;6.82;;;20.20;92.10;;;;;;5028055;28;20037;-78
2022/03/18 09:24:00;;;;;;;46.45;16.08;;;20.60;90.80;;;;;;5035251;28;20041;-77
2022/03/18 09:26:26;;;;;;;22.52;6.88;;;20.90;89.10;;;;;;5029750;28;20034;-77
2022/03/18 09:28:52;;;;;;;28.75;7.57;;;21.00;88.00;;;;;;5027193;28;20371;-77
2022/03/18 09:31:17;;;;;;;25.90;6.90;;;21.30;84.70;;;;;;5025995;28;20041;-79
2022/03/18 09:33:43;;;;;;;27.90;8.00;;;21.50;82.60;;;;;;5026131;28;20057;-80
2022/03/18 09:36:10;;;;;;;22.13;6.85;;;21.90;82.10;;;;;;5022038;28;20376;-76
2022/03/18 09:38:36;;;;;;;20.05;6.43;;;21.90;79.20;;;;;;5028333;28;20493;-79
2022/03/18 09:41:02;;;;;;;28.15;7.05;;;22.90;75.10;;;;;;5030333;28;20022;-78
2022/03/18 09:43:36;;;;;;;21.25;7.45;;;23.10;74.50;;;;;;5003685;28;20030;-79
2022/03/18 09:46:06;;;;;;;27.73;7.90;;;23.10;71.40;;;;;;5001556;28;20037;-80
2022/03/18 09:48:33;;;;;;;29.30;8.02;;;23.70;68.40;;;;;;5018631;28;20304;-77
2022/03/18 09:50:59;;;;;;;26.42;7.18;;;23.60;67.60;;;;;;5014951;28;20032;-76
2022/03/18 09:53:25;;;;;;;29.55;8.57;;;23.70;67.90;;;;;;5017031;28;20053;-76
2022/03/18 09:55:51;;;;;;;21.48;6.35;;;;;;;;;;5015033;28;20040;-77
2022/03/18 09:58:17;;;;;;;27.52;7.85;;;;;;;;;;5014391;28;20026;-78
2022/03/18 10:00:43;;;;;;;32.85;7.90;;;;;;;;;;5014249;28;20080;-77
2022/03/18 10:03:11;;;;;;;27.48;7.82;;;;;;;;;;4999917;28;20030;-77
2022/03/18 10:05:58;;;;;;;27.52;7.45;;;;;;;;;;5033756;28;20093;-75
2022/03/18 10:08:25;;;;;;;30.42;8.48;;;;;;;;;;5032152;28;20033;-77
2022/03/18 10:10:51;;;;;;;26.45;7.88;;;;;;;;;;5034047;28;20390;-76
2022/03/18 10:13:18;;;;;;;26.88;8.23;;;;;;;;;;5033905;28;20044;-77
2022/03/18 10:15:45;;;;;;;28.13;8.55;;;;;;;;;;5033838;28;20105;-76
2022/03/18 10:18:14;;;;;;;29.88;8.65;;;;;;;;;;5033630;28;20040;-76
2022/03/18 10:20:48;;;;;;;25.08;8.55;;;;;;;;;;5034191;28;20029;-76
2022/03/18 10:23:16;;;;;;;27.50;8.50;;;;;;;;;;5033334;28;20603;-75
2022/03/18 10:25:51;;;;;;;31.65;8.82;;;;;;;;;;5033037;28;20091;-76
2022/03/18 10:28:31;;;;;;;27.38;9.00;;;;;;;;;;5033290;28;20025;-75
2022/03/18 10:31:10;;;;;;;24.63;8.32;;;;;;;;;;5032961;28;20036;-76
2022/03/18 10:37:04;;;;;;;30.85;9.23;;;;;;;;;;5032950;28;20025;-76
2022/03/18 10:39:23;;;;;;;27.77;8.90;;;;;;;;;;5033099;28;20513;-76
2022/03/18 10:41:49;;;;;;;21.20;8.18;;;;;;;;;;5033100;28;20075;-77
2022/03/18 10:44:18;;;;;;;37.70;10.55;;;;;;;;;;5033450;28;20078;-76
2022/03/18 10:46:45;;;;;;;23.17;9.20;;;;;;;;;;5033975;28;20022;-78
2022/03/18 10:49:11;;;;;;;26.27;9.65;;;;;;;;;;5038169;28;20118;-75
2022/03/18 10:51:38;;;;;;;26.15;8.70;;;;;;;;;;5041374;28;20447;-82
2022/03/18 10:54:04;;;;;;;32.97;9.80;;;;;;;;;;5041137;28;20049;-77
2022/03/18 10:56:50;;;;;;;27.15;8.85;;;;;;;;;;5040405;28;20031;-79
2022/03/18 10:59:17;;;;;;;26.20;9.07;;;;;;;;;;5037635;28;20021;-80
2022/03/18 11:01:44;;;;;;;24.00;8.52;;;;;;;;;;5038120;28;20024;-78
2022/03/18 11:04:11;;;;;;;21.85;7.75;;;;;;;;;;5038263;28;20406;-78
2022/03/18 11:06:38;;;;;;;24.73;8.32;;;;;;;;;;5037380;28;20044;-78
2022/03/18 11:09:04;;;;;;;28.52;8.98;;;;;;;;;;5036426;28;20049;-78
2022/03/18 11:11:31;;;;;;;27.20;8.02;;;;;;;;;;5037728;28;20022;-79
2022/03/18 11:14:03;;;;;;;34.15;7.97;;;;;;;;;;5040853;28;20025;-77
2022/03/18 11:16:31;;;;;;;28.23;9.60;;;;;;;;;;5043547;28;20032;-78
2022/03/18 11:18:58;;;;;;;27.73;10.32;;;;;;;;;;5036500;28;20044;-79
2022/03/18 11:21:35;;;;;;;29.65;9.73;;;;;;;;;;5035825;28;20028;-77
2022/03/18 11:24:03;;;;;;;31.85;9.55;;;;;;;;;;5034171;28;20036;-78
2022/03/18 11:26:30;;;;;;;22.33;8.00;;;;;;;;;;5037601;28;20052;-79
2022/03/18 11:29:06;;;;;;;31.42;8.38;;;;;;;;;;5039517;28;20029;-77
2022/03/18 11:31:33;;;;;;;24.35;8.65;;;;;;;;;;5038350;28;20025;-81
2022/03/18 11:34:07;;;;;;;27.67;8.77;;;;;;;;;;5040178;28;20028;-78
2022/03/18 11:36:33;;;;;;;;;;;;;;;;;;5037659;28;20544;-77
2022/03/18 11:39:02;;;;;;;24.35;8.85;;;;;;;;;;5043268;28;19909;-80
2022/03/18 11:41:45;;;;;;;25.40;9.18;;;;;;;;;;5038899;28;20103;-77
2022/03/18 11:44:11;;;;;;;29.50;9.90;;;;;;;;;;5039643;28;20025;-79
2022/03/18 11:46:37;;;;;;;22.63;8.07;;;;;;;;;;5036775;28;20034;-79
2022/03/18 11:49:05;;;;;;;23.85;9.07;;;;;;;;;;5037823;28;20022;-79
2022/03/18 11:51:31;;;;;;;26.70;9.15;;;;;;;;;;5037477;28;20043;-77
2022/03/18 11:54:00;;;;;;;26.00;8.88;;;;;;;;;;5036686;28;20054;-76
2022/03/18 11:56:43;;;;;;;20.30;7.95;;;;;;;;;;5042504;28;20036;-75
2022/03/18 11:59:38;;;;;;;20.60;7.75;;;;;;;;;;5040493;28;20024;-77
2022/03/18 12:02:04;;;;;;;23.05;7.85;;;;;;;;;;5037719;28;20049;-77
2022/03/18 12:04:33;;;;;;;25.05;9.38;;;;;;;;;;5035359;28;20092;-75
2022/03/18 12:07:09;;;;;;;27.85;9.07;;;;;;;;;;5036713;28;20033;-76
2022/03/18 12:09:48;;;;;;;27.52;9.73;;;;;;;;;;5037464;28;20060;-75
2022/03/18 12:12:15;;;;;;;23.52;8.73;;;;;;;;;;5037276;28;20025;-76
2022/03/18 12:14:41;;;;;;;27.10;9.68;;;;;;;;;;5037308;28;20038;-77
2022/03/18 12:17:07;;;;;;;24.02;10.30;;;;;;;;;;5036719;28;20038;-76
2022/03/18 12:19:37;;;;;;;24.88;10.68;;;;;;;;;;5035585;28;20021;-76
2022/03/18 12:22:03;;;;;;;26.67;11.43;;;;;;;;;;5036841;28;20037;-76
2022/03/18 12:24:29;;;;;;;21.60;8.75;;;;;;;;;;5036618;28;20151;-74
2022/03/18 12:26:56;;;;;;;22.50;9.30;;;;;;;;;;5036255;28;20052;-76
2022/03/18 12:29:26;;;;;;;20.60;9.57;;;;;;;;;;5036572;28;20025;-76
2022/03/18 12:32:01;;;;;;;21.55;9.27;;;;;;;;;;5037133;28;20017;-77
2022/03/18 12:34:28;;;;;;;20.23;9.07;;;;;;;;;;5035345;28;20526;-75
2022/03/18 12:36:54;;;;;;;19.58;8.13;;;;;;;;;;5036146;28;20049;-76
2022/03/18 12:39:20;;;;;;;19.52;8.60;;;;;;;;;;5036696;28;20053;-75
2022/03/18 12:41:46;;;;;;;19.20;7.55;;;;;;;;;;5055537;28;20030;-75
2022/03/18 12:44:12;;;;;;;20.10;6.72;;;;;;;;;;5060558;28;20085;-76
2022/03/18 12:46:39;;;;;;;20.55;6.97;;;;;;;;;;5059874;28;20021;-75
2022/03/18 12:49:09;;;;;;;19.83;7.68;;;;;;;;;;5060469;28;20080;-76
2022/03/18 12:51:36;;;;;;;22.92;8.68;;;;;;;;;;5059098;28;20033;-74
2022/03/18 12:54:02;;;;;;;23.27;8.98;;;;;;;;;;5055940;28;20497;-74
2022/03/18 12:56:31;;;;;;;23.98;9.05;;;;;;;;;;5037093;28;20443;-77
2022/03/18 12:58:57;;;;;;;22.60;9.15;;;;;;;;;;5037173;28;20017;-74
2022/03/18 13:01:23;;;;;;;29.42;10.02;;;;;;;;;;5035172;28;20029;-74
2022/03/18 13:03:51;;;;;;;24.23;8.23;;;;;;;;;;5035752;28;20025;-74
2022/03/18 13:06:22;;;;;;;28.00;6.47;;;;;;;;;;5036249;28;20025;-76
2022/03/18 13:08:50;;;;;;;17.98;6.47;;;;;;;;;;5036191;28;20025;-75
2022/03/18 13:11:17;;;;;;;24.83;5.50;;;;;;;;;;5036566;28;20021;-75
2022/03/18 13:13:47;;;;;;;16.70;5.15;;;;;;;;;;5034809;28;20473;-75
2022/03/18 13:16:15;;;;;;;15.98;5.05;;;;;;;;;;5036770;28;20033;-74
2022/03/18 13:18:48;;;;;;;19.10;7.60;;;;;;;;;;5040396;28;20017;-77
2022/03/18 13:21:14;;;;;;;16.23;5.45;;;;;;;;;;5059313;28;20033;-76
2022/03/18 13:23:42;;;;;;;20.27;6.10;;;;;;;;;;5058504;28;20068;-76
2022/03/18 13:26:12;;;;;;;22.33;5.70;;;;;;;;;;5052731;28;20063;-76
2022/03/18 13:28:38;;;;;;;19.27;5.07;;;;;;;;;;5047857;28;20071;-78
2022/03/18 13:34:00;;;;;;;20.05;6.40;;;;;;;;;;5050517;28;20036;-78